Time;durP1;ratioP1;P1;durP2;ratioP2;P2;SDS_P1;SDS_P2;PMS_P1;PMS_P2;Temp;Humidity;BMP_temperature;BMP_pressure;BME280_temperature;BME280_humidity;BME280_pressure;Samples;Min_cycle;Max_cycle;Signal;HPM_P1;HPM_P2
2021/07/02 00:01:48;;;;;;;11.63;7.55;;;;;;;;;;5036542;28;20435;-73
2021/07/02 00:04:14;;;;;;;13.32;7.55;;;;;;;;;;5071837;28;20074;-73
2021/07/02 00:06:39;;;;;;;11.40;7.30;;;;;;;;;;5074004;28;20094;-73
2021/07/02 00:09:04;;;;;;;9.70;6.93;;;;;;;;;;5072837;28;20472;-73
2021/07/02 00:11:30;;;;;;;10.25;7.57;;;;;;;;;;5072493;28;20036;-73
2021/07/02 00:13:56;;;;;;;9.65;7.70;;;;;;;;;;5074229;28;20525;-73
2021/07/02 00:16:21;;;;;;;9.70;6.95;;;;;;;;;;5073955;28;20035;-73
2021/07/02 00:18:58;;;;;;;12.07;7.13;;;;;;;;;;5073309;28;20020;-73
2021/07/02 00:21:23;;;;;;;11.05;7.70;;;;;;;;;;5073930;28;20024;-73
2021/07/02 00:23:49;;;;;;;12.70;7.75;;;;;;;;;;5067266;28;20031;-73
2021/07/02 00:26:14;;;;;;;12.20;7.35;;;;;;;;;;5065579;28;20035;-73
2021/07/02 00:28:40;;;;;;;13.93;8.13;;;;;;;;;;5072336;28;20025;-74
2021/07/02 00:31:05;;;;;;;16.90;9.13;;;;;;;;;;5070979;28;20491;-73
2021/07/02 00:33:31;;;;;;;15.98;8.88;;;;;;;;;;5073352;28;20090;-73
2021/07/02 00:35:56;;;;;;;10.25;8.23;;;;;;;;;;5073755;28;20032;-73
2021/07/02 00:38:21;;;;;;;13.18;8.70;;;;;;;;;;5073395;28;20028;-73
2021/07/02 00:40:48;;;;;;;13.98;8.52;;;;;;;;;;5068224;28;20472;-73
2021/07/02 00:43:13;;;;;;;14.60;8.90;;;;;;;;;;5071725;28;20054;-73
2021/07/02 00:45:53;;;;;;;13.65;8.70;;;;;;;;;;5073835;28;20029;-73
2021/07/02 00:48:19;;;;;;;14.07;9.57;;;;;;;;;;5073453;28;20028;-73
2021/07/02 00:50:45;;;;;;;14.77;9.43;;;;;;;;;;5059181;28;20029;-74
2021/07/02 00:53:32;;;;;;;12.27;10.30;;;;;;;;;;5059378;28;20024;-73
2021/07/02 00:56:00;;;;;;;12.68;10.52;;;;;;;;;;5047454;28;20031;-73
2021/07/02 00:58:31;;;;;;;15.15;10.35;;;;;;;;;;5069715;28;20032;-73
2021/07/02 01:00:58;;;;;;;17.60;11.43;;;;;;;;;;5073363;28;20062;-73
2021/07/02 01:03:23;;;;;;;14.43;10.90;;;;;;;;;;5071685;28;20136;-73
2021/07/02 01:05:49;;;;;;;18.48;12.00;;;;;;;;;;5052569;28;20115;-73
2021/07/02 01:08:20;;;;;;;18.13;12.45;;;;;;;;;;5065528;28;20020;-73
2021/07/02 01:10:45;;;;;;;18.05;12.10;;;;;;;;;;5072916;28;20020;-73
2021/07/02 01:13:11;;;;;;;18.38;12.85;;;;;;;;;;5072099;28;20033;-73
2021/07/02 01:15:37;;;;;;;20.25;11.75;;;;;;;;;;5072252;28;20021;-73
2021/07/02 01:18:10;;;;;;;20.30;11.85;;;;;;;;;;5056383;28;20025;-73
2021/07/02 01:20:36;;;;;;;22.40;12.02;;;;;;;;;;5053180;28;20121;-73
2021/07/02 01:23:03;;;;;;;18.50;11.57;;;;;;;;;;5052852;28;20072;-73
2021/07/02 01:25:32;;;;;;;17.10;11.38;;;;;;;;;;5072979;28;20033;-73
2021/07/02 01:27:59;;;;;;;22.45;11.45;;;;;;;;;;5087280;28;20036;-73
2021/07/02 01:31:11;;;;;;;21.42;12.10;;;;;;;;;;5073709;28;20035;-73
2021/07/02 01:33:36;;;;;;;20.00;11.90;;;;;;;;;;5072397;28;20024;-73
2021/07/02 01:36:10;;;;;;;16.42;10.82;;;;;;;;;;5092994;28;20360;-73
2021/07/02 01:38:48;;;;;;;19.80;11.38;;;;;;;;;;5092652;28;20104;-73
2021/07/02 01:41:14;;;;;;;21.02;11.77;;;;;;;;;;5074905;28;20028;-73
2021/07/02 01:43:40;;;;;;;21.17;12.25;;;;;;;;;;5093089;28;20024;-73
2021/07/02 01:46:11;;;;;;;17.35;11.23;;;;;;;;;;5093082;28;20074;-73
2021/07/02 01:48:36;;;;;;;17.40;11.57;;;;;;;;;;5092286;28;20498;-73
2021/07/02 01:51:02;;;;;;;21.88;12.43;;;;;;;;;;5074487;28;20021;-73
2021/07/02 01:53:38;;;;;;;26.30;12.57;;;;;;;;;;5081340;28;20020;-73
2021/07/02 01:56:04;;;;;;;17.58;11.73;;;;;;;;;;5072766;28;20112;-73
2021/07/02 01:58:30;;;;;;;20.00;11.02;;;;;;;;;;5084269;28;20103;-72
2021/07/02 02:01:07;;;;;;;16.77;10.70;;;;;;;;;;5093021;28;20420;-73
2021/07/02 02:03:33;;;;;;;18.50;10.73;;;;;;;;;;5092892;28;20074;-73
2021/07/02 02:05:58;;;;;;;15.75;10.05;;;;;;;;;;5074758;28;20024;-73
2021/07/02 02:08:27;;;;;;;14.25;9.82;;;;;;;;;;5092397;28;20379;-72
2021/07/02 02:10:52;;;;;;;14.65;10.18;;;;;;;;;;5092601;28;20032;-73
2021/07/02 02:13:27;;;;;;;13.70;9.93;;;;;;;;;;5063898;28;20024;-73
2021/07/02 02:15:52;;;;;;;14.93;10.10;;;;;;;;;;5087619;28;20357;-73
2021/07/02 02:18:18;;;;;;;15.20;9.85;;;;;;;;;;5092328;28;20028;-73
2021/07/02 02:20:47;;;;;;;17.77;11.00;;;;;;;;;;5092697;28;20043;-73
2021/07/02 02:23:12;;;;;;;14.32;11.00;;;;;;;;;;5092392;28;20137;-73
2021/07/02 02:25:38;;;;;;;16.08;9.88;;;;;;;;;;5091142;28;20036;-73
2021/07/02 02:28:12;;;;;;;18.33;10.68;;;;;;;;;;5063254;28;20166;-73
2021/07/02 02:30:38;;;;;;;13.07;9.55;;;;;;;;;;5076157;28;20024;-73
2021/07/02 02:33:05;;;;;;;16.38;9.85;;;;;;;;;;5059374;28;20044;-73
2021/07/02 02:35:35;;;;;;;16.67;9.90;;;;;;;;;;5067187;28;20379;-73
2021/07/02 02:38:00;;;;;;;15.82;9.30;;;;;;;;;;5075142;28;20468;-73
2021/07/02 02:40:26;;;;;;;14.60;9.65;;;;;;;;;;5075776;28;20104;-73
2021/07/02 02:42:52;;;;;;;15.30;9.35;;;;;;;;;;5073476;28;20025;-73
2021/07/02 02:45:17;;;;;;;18.50;10.43;;;;;;;;;;5075765;28;20032;-73
2021/07/02 02:47:42;;;;;;;15.73;9.75;;;;;;;;;;5075657;28;20019;-73
2021/07/02 02:50:39;;;;;;;17.10;10.07;;;;;;;;;;5075700;28;20024;-73
2021/07/02 02:53:04;;;;;;;15.57;9.40;;;;;;;;;;5040288;28;20028;-73
2021/07/02 02:55:30;;;;;;;19.17;10.70;;;;;;;;;;5055706;28;20051;-73
2021/07/02 02:57:56;;;;;;;18.08;11.32;;;;;;;;;;5054852;28;20079;-73
2021/07/02 03:00:22;;;;;;;15.80;11.85;;;;;;;;;;5072288;28;20028;-73
2021/07/02 03:02:47;;;;;;;15.52;10.60;;;;;;;;;;5069292;28;20029;-72
2021/07/02 03:05:18;;;;;;;16.73;10.25;;;;;;;;;;5055375;28;20047;-73
2021/07/02 03:07:43;;;;;;;18.40;10.90;;;;;;;;;;5055141;28;20017;-72
2021/07/02 03:10:10;;;;;;;15.50;10.90;;;;;;;;;;5055631;28;20079;-73
2021/07/02 03:12:49;;;;;;;14.60;10.80;;;;;;;;;;5055327;28;20025;-73
2021/07/02 03:15:14;;;;;;;16.23;10.60;;;;;;;;;;5055368;28;20029;-73
2021/07/02 03:17:41;;;;;;;13.38;9.65;;;;;;;;;;5055194;28;20075;-73
2021/07/02 03:20:09;;;;;;;15.82;10.43;;;;;;;;;;5054836;28;20070;-72
2021/07/02 03:22:36;;;;;;;17.05;10.55;;;;;;;;;;5069764;28;20131;-73
2021/07/02 03:25:03;;;;;;;20.80;11.18;;;;;;;;;;5073896;28;20032;-72
2021/07/02 03:27:42;;;;;;;16.20;10.95;;;;;;;;;;5087340;28;20044;-74
2021/07/02 03:30:11;;;;;;;16.75;10.50;;;;;;;;;;5077551;28;20028;-72
2021/07/02 03:32:36;;;;;;;18.00;9.50;;;;;;;;;;5076614;28;20119;-74
2021/07/02 03:35:11;;;;;;;11.40;8.90;;;;;;;;;;5087946;28;20055;-73
2021/07/02 03:37:36;;;;;;;16.08;8.82;;;;;;;;;;5074879;28;20028;-74
2021/07/02 03:40:05;;;;;;;11.35;8.10;;;;;;;;;;5074937;28;20496;-73
2021/07/02 03:43:18;;;;;;;11.75;7.82;;;;;;;;;;5074736;28;20025;-72
2021/07/02 03:45:44;;;;;;;12.50;8.05;;;;;;;;;;5087187;28;20016;-72
2021/07/02 03:48:10;;;;;;;15.02;8.48;;;;;;;;;;5060071;28;20119;-73
2021/07/02 03:50:48;;;;;;;10.88;8.25;;;;;;;;;;5074697;28;20035;-73
2021/07/02 03:53:13;;;;;;;13.20;8.40;;;;;;;;;;5056147;28;20535;-73
2021/07/02 03:55:39;;;;;;;11.35;7.45;;;;;;;;;;5073590;28;20112;-72
2021/07/02 03:58:23;;;;;;;9.23;7.65;;;;;;;;;;5073757;28;20097;-72
2021/07/02 04:00:48;;;;;;;;;;;;;;;;;;5075948;28;20035;-74
2021/07/02 04:03:17;;;;;;;14.27;7.35;;;;;;;;;;5062734;28;20347;-73
2021/07/02 04:05:44;;;;;;;12.73;7.45;;;;;;;;;;5094630;28;20390;-72
2021/07/02 04:08:11;;;;;;;12.93;7.70;;;;;;;;;;5094169;28;20016;-73
2021/07/02 04:11:06;;;;;;;14.52;8.27;;;;;;;;;;5080907;28;20033;-72
2021/07/02 04:13:31;;;;;;;11.88;7.65;;;;;;;;;;5065258;28;20066;-73
2021/07/02 04:16:02;;;;;;;13.77;7.32;;;;;;;;;;5092678;28;20031;-73
2021/07/02 04:18:27;;;;;;;10.05;7.55;;;;;;;;;;5076060;28;20082;-73
2021/07/02 04:20:55;;;;;;;12.50;7.72;;;;;;;;;;5077979;28;20476;-73
2021/07/02 04:23:20;;;;;;;12.70;7.03;;;;;;;;;;5085148;28;20024;-73
2021/07/02 04:25:46;;;;;;;10.63;7.13;;;;;;;;;;5077474;28;20070;-73
2021/07/02 04:28:18;;;;;;;11.30;7.40;;;;;;;;;;5093251;28;20051;-73
2021/07/02 04:30:44;;;;;;;10.10;6.72;;;;;;;;;;5085821;28;20035;-73
2021/07/02 04:33:09;;;;;;;11.43;6.72;;;;;;;;;;5073979;28;20107;-73
2021/07/02 04:35:41;;;;;;;10.35;7.18;;;;;;;;;;5083496;28;20115;-73
2021/07/02 04:38:07;;;;;;;12.88;7.22;;;;;;;;;;5093984;28;20016;-73
2021/07/02 04:40:33;;;;;;;13.55;7.68;;;;;;;;;;5093332;28;20536;-74
2021/07/02 04:43:00;;;;;;;11.07;6.72;;;;;;;;;;5094010;28;20024;-73
2021/07/02 04:45:25;;;;;;;11.73;7.00;;;;;;;;;;5093745;28;20042;-73
2021/07/02 04:47:51;;;;;;;10.10;7.15;;;;;;;;;;5093437;28;20020;-73
2021/07/02 04:50:17;;;;;;;12.18;6.93;;;;;;;;;;5093761;28;20024;-73
2021/07/02 04:52:42;;;;;;;10.85;7.20;;;;;;;;;;5088830;28;20395;-73
2021/07/02 04:55:14;;;;;;;10.40;6.97;;;;;;;;;;5079084;28;20028;-73
2021/07/02 04:57:40;;;;;;;14.07;7.60;;;;;;;;;;5077834;28;20021;-74
2021/07/02 05:00:06;;;;;;;9.82;6.75;;;;;;;;;;5084707;28;20037;-73
2021/07/02 05:02:32;;;;;;;13.38;7.47;;;;;;;;;;5090350;28;20280;-73
2021/07/02 05:04:57;;;;;;;10.27;7.45;;;;;;;;;;5080415;28;20035;-73
2021/07/02 05:07:23;;;;;;;12.27;7.18;;;;;;;;;;5080626;28;20028;-73
2021/07/02 05:09:53;;;;;;;11.15;7.20;;;;;;;;;;5073120;28;20415;-73
2021/07/02 05:12:18;;;;;;;11.45;7.13;;;;;;;;;;5073190;28;20103;-73
2021/07/02 05:14:44;;;;;;;11.77;6.70;;;;;;;;;;5072573;28;20408;-73
2021/07/02 05:17:32;;;;;;;11.82;7.05;;;;;;;;;;5090930;28;20031;-73
2021/07/02 05:19:58;;;;;;;8.27;6.93;;;;;;;;;;5093233;28;20356;-74
2021/07/02 05:22:24;;;;;;;11.77;7.15;;;;;;;;;;5092869;28;20035;-74
2021/07/02 05:24:51;;;;;;;14.27;6.88;;;;;;;;;;5092812;28;20036;-73
2021/07/02 05:27:23;;;;;;;9.90;6.95;;;;;;;;;;5092590;28;20050;-74
2021/07/02 05:29:48;;;;;;;10.68;6.85;;;;;;;;;;5093074;28;20024;-73
2021/07/02 05:32:14;;;;;;;12.48;7.47;;;;;;;;;;5092472;28;20467;-73
2021/07/02 05:34:41;;;;;;;11.30;7.20;;;;;;;;;;5092295;28;20030;-73
2021/07/02 05:37:08;;;;;;;9.18;7.03;;;;;;;;;;5093071;28;20020;-73
2021/07/02 05:39:33;;;;;;;10.55;6.88;;;;;;;;;;5093447;28;20047;-74
2021/07/02 05:42:47;;;;;;;9.48;7.03;;;;;;;;;;5093380;28;20016;-73
2021/07/02 05:45:13;;;;;;;;;;;;;;;;;;5093537;28;20028;-73
2021/07/02 05:47:51;;;;;;;9.55;6.50;;;;;;;;;;5092762;28;19915;-73
2021/07/02 05:50:18;;;;;;;11.23;7.40;;;;;;;;;;5092359;28;20028;-71
2021/07/02 05:52:44;;;;;;;9.00;7.60;;;;;;;;;;5092364;28;20101;-72
2021/07/02 05:55:19;;;;;;;12.75;7.47;;;;;;;;;;5093060;28;20066;-72
2021/07/02 05:57:45;;;;;;;10.85;7.47;;;;;;;;;;5076233;28;20025;-72
2021/07/02 06:00:11;;;;;;;8.88;7.07;;;;;;;;;;5076631;28;20074;-72
2021/07/02 06:02:37;;;;;;;11.80;7.47;;;;;;;;;;5092747;28;20032;-72
2021/07/02 06:05:04;;;;;;;11.00;7.00;;;;;;;;;;5095380;28;20027;-72
2021/07/02 06:07:39;;;;;;;8.90;7.22;;;;;;;;;;5096504;28;20068;-75
2021/07/02 06:10:05;;;;;;;11.45;7.10;;;;;;;;;;5096378;28;20024;-75
2021/07/02 06:12:31;;;;;;;11.65;7.47;;;;;;;;;;5096841;28;20077;-76
2021/07/02 06:15:04;;;;;;;9.25;6.60;;;;;;;;;;5095869;28;20016;-72
2021/07/02 06:17:29;;;;;;;8.43;6.93;;;;;;;;;;5094870;28;20033;-72
2021/07/02 06:19:55;;;;;;;11.63;8.40;;;;;;;;;;5095333;28;20487;-75
2021/07/02 06:22:21;;;;;;;9.23;7.10;;;;;;;;;;5096256;28;20040;-76
2021/07/02 06:24:46;;;;;;;9.32;6.78;;;;;;;;;;5096151;28;20032;-75
2021/07/02 06:27:11;;;;;;;10.70;7.57;;;;;;;;;;5095894;28;20040;-75
2021/07/02 06:29:42;;;;;;;9.45;7.10;;;;;;;;;;5096318;28;20024;-75
2021/07/02 06:32:07;;;;;;;9.60;7.53;;;;;;;;;;5093934;28;20027;-75
2021/07/02 06:34:33;;;;;;;11.85;7.40;;;;;;;;;;5076074;28;20103;-75
2021/07/02 06:37:06;;;;;;;8.82;6.80;;;;;;;;;;5076140;28;20162;-75
2021/07/02 06:39:31;;;;;;;10.50;7.25;;;;;;;;;;5076204;28;20534;-75
2021/07/02 06:41:56;;;;;;;9.35;7.43;;;;;;;;;;5096275;28;20032;-76
2021/07/02 06:44:23;;;;;;;9.98;7.40;;;;;;;;;;5094899;28;20032;-76
2021/07/02 06:46:48;;;;;;;9.07;7.10;;;;;;;;;;5095924;28;20410;-76
2021/07/02 06:49:14;;;;;;;10.18;7.43;;;;;;;;;;5096390;28;20031;-75
2021/07/02 06:51:50;;;;;;;11.52;8.10;;;;;;;;;;5076814;28;20032;-75
2021/07/02 06:54:15;;;;;;;11.90;7.45;;;;;;;;;;5073938;28;20484;-74
2021/07/02 06:57:03;;;;;;;11.45;7.50;;;;;;;;;;5080421;28;20070;-77
2021/07/02 06:59:34;;;;;;;12.95;7.20;;;;;;;;;;5087686;28;20080;-75
2021/07/02 07:02:01;;;;;;;11.70;7.63;;;;;;;;;;5084361;28;20027;-76
2021/07/02 07:04:36;;;;;;;9.65;6.63;;;;;;;;;;5057651;28;20020;-76
2021/07/02 07:07:08;;;;;;;10.82;6.72;;;;;;;;;;5069240;28;20031;-75
2021/07/02 07:09:35;;;;;;;8.43;6.25;;;;;;;;;;5063919;28;20036;-75
2021/07/02 07:12:01;;;;;;;11.27;7.13;;;;;;;;;;5086885;28;20102;-76
2021/07/02 07:14:27;;;;;;;9.77;6.90;;;;;;;;;;5080900;28;20032;-75
2021/07/02 07:16:53;;;;;;;12.77;7.00;;;;;;;;;;5090895;28;20085;-76
2021/07/02 07:19:22;;;;;;;11.45;7.35;;;;;;;;;;5082695;28;20029;-78
2021/07/02 07:21:48;;;;;;;10.07;6.85;;;;;;;;;;5086881;28;20107;-76
2021/07/02 07:24:21;;;;;;;8.93;6.43;;;;;;;;;;5085009;28;20111;-72
2021/07/02 07:26:49;;;;;;;10.50;6.80;;;;;;;;;;5080707;28;20086;-72
2021/07/02 07:29:14;;;;;;;8.70;6.75;;;;;;;;;;5087425;28;20539;-77
2021/07/02 07:31:41;;;;;;;11.73;6.63;;;;;;;;;;5083546;28;20102;-70
2021/07/02 07:34:07;;;;;;;9.05;6.93;;;;;;;;;;5080205;28;20166;-71
2021/07/02 07:36:35;;;;;;;9.65;6.72;;;;;;;;;;5073747;28;20407;-73
2021/07/02 07:39:00;;;;;;;11.85;6.65;;;;;;;;;;5082494;28;20167;-71
2021/07/02 07:41:26;;;;;;;8.88;6.55;;;;;;;;;;5086004;28;20458;-72
2021/07/02 07:43:52;;;;;;;9.93;6.22;;;;;;;;;;5092848;28;20479;-71
2021/07/02 07:46:17;;;;;;;7.30;6.50;;;;;;;;;;5092329;28;20060;-71
2021/07/02 07:48:43;;;;;;;9.60;6.40;;;;;;;;;;5092646;28;20340;-72
2021/07/02 07:51:18;;;;;;;8.23;6.93;;;;;;;;;;5089302;28;20025;-74
2021/07/02 07:53:43;;;;;;;9.52;6.22;;;;;;;;;;5082904;28;20032;-75
2021/07/02 07:56:22;;;;;;;9.10;5.75;;;;;;;;;;5089004;28;20024;-71
2021/07/02 07:58:48;;;;;;;9.20;5.50;;;;;;;;;;5089643;28;20021;-72
2021/07/02 08:01:13;;;;;;;7.40;5.97;;;;;;;;;;5085231;28;20493;-71
2021/07/02 08:03:45;;;;;;;8.65;6.25;;;;;;;;;;5091834;28;20030;-71
2021/07/02 08:06:11;;;;;;;10.68;6.40;;;;;;;;;;5094255;28;20110;-71
2021/07/02 08:08:36;;;;;;;7.10;5.28;;;;;;;;;;5094347;28;20028;-70
2021/07/02 08:11:03;;;;;;;10.38;6.00;;;;;;;;;;5076138;28;20101;-71
2021/07/02 08:13:29;;;;;;;7.00;6.00;;;;;;;;;;5094203;28;20020;-71
2021/07/02 08:16:16;;;;;;;10.23;6.25;;;;;;;;;;5094232;28;20107;-72
2021/07/02 08:18:41;;;;;;;7.78;5.55;;;;;;;;;;5094035;28;20028;-71
2021/07/02 08:21:07;;;;;;;10.55;5.82;;;;;;;;;;5093856;28;20084;-72
2021/07/02 08:23:34;;;;;;;10.82;6.13;;;;;;;;;;5089796;28;20020;-72
2021/07/02 08:26:00;;;;;;;8.10;5.68;;;;;;;;;;5074603;28;20031;-72
2021/07/02 08:31:10;;;;;;;7.07;6.05;;;;;;;;;;5086083;28;20031;-72
2021/07/02 08:33:35;;;;;;;9.15;6.10;;;;;;;;;;5075246;28;20028;-72
2021/07/02 08:36:09;;;;;;;7.60;5.88;;;;;;;;;;5093553;28;20031;-73
2021/07/02 08:38:35;;;;;;;14.55;6.80;;;;;;;;;;5093939;28;20032;-72
2021/07/02 08:41:03;;;;;;;10.68;6.10;;;;;;;;;;5093977;28;20020;-72
2021/07/02 08:43:29;;;;;;;8.70;6.43;;;;;;;;;;5071997;28;20047;-72
2021/07/02 08:45:58;;;;;;;9.23;6.25;;;;;;;;;;5092930;28;20055;-72
2021/07/02 08:48:25;;;;;;;10.07;6.38;;;;;;;;;;5093139;28;20025;-73
2021/07/02 08:50:54;;;;;;;10.35;5.95;;;;;;;;;;5093357;28;20107;-73
2021/07/02 08:53:28;;;;;;;8.52;5.70;;;;;;;;;;5085822;28;20028;-75
2021/07/02 08:55:53;;;;;;;9.65;5.60;;;;;;;;;;5078033;28;20020;-76
2021/07/02 08:58:27;;;;;;;8.93;6.20;;;;;;;;;;5079913;28;20380;-74
2021/07/02 09:00:53;;;;;;;9.32;6.18;;;;;;;;;;5056858;28;20032;-76
2021/07/02 09:03:40;;;;;;;7.30;5.78;;;;;;;;;;5082547;28;20032;-75
2021/07/02 09:06:09;;;;;;;9.45;6.10;;;;;;;;;;5087825;28;20048;-76
2021/07/02 09:08:36;;;;;;;9.10;5.40;;;;;;;;;;5079529;28;20050;-77
2021/07/02 09:11:03;;;;;;;7.10;5.55;;;;;;;;;;5075181;28;20031;-76
2021/07/02 09:13:42;;;;;;;7.63;5.70;;;;;;;;;;5092463;28;20028;-76
2021/07/02 09:16:37;;;;;;;9.07;5.78;;;;;;;;;;5082733;28;20535;-75
2021/07/02 09:19:27;;;;;;;7.68;6.10;;;;;;;;;;5085151;28;20063;-74
2021/07/02 09:22:15;;;;;;;10.38;5.75;;;;;;;;;;5072254;28;20398;-74
2021/07/02 09:24:43;;;;;;;8.18;5.57;;;;;;;;;;5079213;28;20024;-73
2021/07/02 09:27:23;;;;;;;11.00;5.80;;;;;;;;;;5090150;28;20451;-73
2021/07/02 09:30:13;;;;;;;9.50;5.63;;;;;;;;;;5085782;28;20139;-72
2021/07/02 09:32:41;;;;;;;8.98;6.18;;;;;;;;;;5079729;28;20499;-75
2021/07/02 09:35:08;;;;;;;8.40;5.75;;;;;;;;;;5088420;28;20025;-73
2021/07/02 09:37:41;;;;;;;11.65;5.70;;;;;;;;;;5083727;28;20036;-75
2021/07/02 09:40:27;;;;;;;6.75;5.57;;;;;;;;;;5078933;28;20024;-77
2021/07/02 09:43:01;;;;;;;9.20;6.13;;;;;;;;;;5090424;28;20043;-73
2021/07/02 09:45:28;;;;;;;8.00;5.85;;;;;;;;;;5087293;28;20479;-75
2021/07/02 09:47:55;;;;;;;8.25;5.63;;;;;;;;;;5070937;28;20513;-77
2021/07/02 09:50:28;;;;;;;7.78;5.32;;;;;;;;;;5081902;28;20162;-73
2021/07/02 09:53:01;;;;;;;7.75;5.47;;;;;;;;;;5066427;28;20084;-74
2021/07/02 09:55:31;;;;;;;;;;;;;;;;;;5079302;28;20095;-77
2021/07/02 09:58:15;;;;;;;7.03;5.68;;;;;;;;;;5088353;28;20065;-75
2021/07/02 10:00:47;;;;;;;6.57;4.80;;;;;;;;;;5084345;28;20108;-75
2021/07/02 10:03:15;;;;;;;7.90;5.47;;;;;;;;;;5074168;28;20036;-76
2021/07/02 10:05:53;;;;;;;8.02;5.95;;;;;;;;;;5085294;28;20040;-76
2021/07/02 10:08:19;;;;;;;8.80;5.50;;;;;;;;;;5092595;28;20023;-77
2021/07/02 10:10:48;;;;;;;9.60;5.32;;;;;;;;;;5088576;28;20070;-75
2021/07/02 10:13:13;;;;;;;7.15;5.50;;;;;;;;;;5083093;28;20111;-74
2021/07/02 10:15:41;;;;;;;7.15;5.32;;;;;;;;;;5079340;28;20114;-75
2021/07/02 10:18:11;;;;;;;8.80;5.32;;;;;;;;;;5089918;28;20088;-74
2021/07/02 10:20:39;;;;;;;8.85;5.32;;;;;;;;;;5076659;28;20063;-74
2021/07/02 10:23:06;;;;;;;11.70;5.95;;;;;;;;;;5080562;28;20024;-75
2021/07/02 10:25:32;;;;;;;8.18;5.95;;;;;;;;;;5083669;28;20024;-73
2021/07/02 10:27:59;;;;;;;9.02;5.93;;;;;;;;;;5087001;28;20059;-75
2021/07/02 10:30:25;;;;;;;7.00;5.35;;;;;;;;;;5087814;28;20028;-75
2021/07/02 10:32:57;;;;;;;9.52;5.47;;;;;;;;;;5081612;28;20035;-74
2021/07/02 10:35:23;;;;;;;8.53;5.53;;;;;;;;;;5079639;28;20471;-73
2021/07/02 10:37:54;;;;;;;7.90;5.65;;;;;;;;;;5088163;28;20585;-75
2021/07/02 10:41:06;;;;;;;8.32;5.20;;;;;;;;;;5085223;28;20020;-76
2021/07/02 10:43:32;;;;;;;9.15;5.32;;;;;;;;;;5044131;28;20048;-73
2021/07/02 10:46:11;;;;;;;10.05;5.50;;;;;;;;;;5075116;28;20472;-73
2021/07/02 10:48:50;;;;;;;7.10;5.72;;;;;;;;;;5084602;28;20093;-71
2021/07/02 10:51:32;;;;;;;14.50;6.70;;;;;;;;;;5076145;28;20024;-72
2021/07/02 10:54:09;;;;;;;9.65;6.07;;;;;;;;;;5075575;28;20086;-73
2021/07/02 10:56:37;;;;;;;9.20;5.75;;;;;;;;;;5080141;28;20511;-72
2021/07/02 10:59:03;;;;;;;8.00;5.95;;;;;;;;;;5085255;28;20375;-73
2021/07/02 11:01:31;;;;;;;11.52;6.18;;;;;;;;;;5082682;28;20028;-73
2021/07/02 11:04:34;;;;;;;10.40;6.15;;;;;;;;;;5072365;28;20021;-73
2021/07/02 11:07:13;;;;;;;8.20;5.90;;;;;;;;;;5077493;28;20025;-71
2021/07/02 11:09:54;;;;;;;9.05;5.70;;;;;;;;;;5080416;28;20024;-73
2021/07/02 11:12:23;;;;;;;7.28;5.72;;;;;;;;;;5095061;28;20379;-73
2021/07/02 11:14:55;;;;;;;7.25;5.97;;;;;;;;;;5095384;28;20467;-73
2021/07/02 11:17:29;;;;;;;11.25;5.70;;;;;;;;;;5095277;28;20082;-73
2021/07/02 11:20:10;;;;;;;6.50;5.35;;;;;;;;;;5076379;28;20043;-73
2021/07/02 11:22:45;;;;;;;7.05;5.28;;;;;;;;;;5095033;28;20020;-73
2021/07/02 11:25:14;;;;;;;7.70;5.80;;;;;;;;;;5094305;28;20020;-73
2021/07/02 11:27:47;;;;;;;7.78;5.57;;;;;;;;;;5092702;28;20097;-75
2021/07/02 11:30:36;;;;;;;7.10;5.30;;;;;;;;;;5085296;28;20062;-76
2021/07/02 11:33:03;;;;;;;7.50;5.22;;;;;;;;;;5089550;28;20035;-80
2021/07/02 11:35:31;;;;;;;6.85;5.60;;;;;;;;;;5094023;28;20027;-78
2021/07/02 11:38:05;;;;;;;6.90;5.32;;;;;;;;;;5095279;28;20024;-76
2021/07/02 11:40:38;;;;;;;9.70;5.70;;;;;;;;;;5088924;28;20353;-76
2021/07/02 11:43:06;;;;;;;;;;;;;;;;;;5075180;28;20491;-73
2021/07/02 11:45:53;;;;;;;8.15;5.53;;;;;;;;;;5090357;28;19912;-77
2021/07/02 11:48:24;;;;;;;10.52;5.78;;;;;;;;;;5074891;28;20028;-75
2021/07/02 11:50:49;;;;;;;8.55;5.75;;;;;;;;;;5087592;28;20031;-74
2021/07/02 11:53:38;;;;;;;10.07;6.20;;;;;;;;;;5094573;28;20471;-73
2021/07/02 11:56:13;;;;;;;8.30;5.95;;;;;;;;;;5087728;28;20032;-74
2021/07/02 11:58:44;;;;;;;9.00;5.47;;;;;;;;;;5093638;28;20044;-73
2021/07/02 12:01:17;;;;;;;9.82;5.88;;;;;;;;;;5082988;28;20020;-75
2021/07/02 12:04:01;;;;;;;7.82;5.55;;;;;;;;;;5086072;28;20052;-75
2021/07/02 12:06:29;;;;;;;6.63;5.50;;;;;;;;;;5092837;28;20364;-73
2021/07/02 12:09:05;;;;;;;9.07;5.85;;;;;;;;;;5092307;28;20039;-78
2021/07/02 12:11:38;;;;;;;7.65;5.78;;;;;;;;;;5085298;28;20348;-77
2021/07/02 12:14:09;;;;;;;6.53;5.78;;;;;;;;;;5090882;28;20075;-77
2021/07/02 12:16:36;;;;;;;7.10;5.53;;;;;;;;;;5076038;28;20358;-77
2021/07/02 12:19:03;;;;;;;6.72;5.00;;;;;;;;;;5071301;28;20103;-76
2021/07/02 12:21:29;;;;;;;7.97;5.75;;;;;;;;;;5068438;28;20038;-78
2021/07/02 12:24:01;;;;;;;7.53;5.30;;;;;;;;;;5093733;28;20404;-75
2021/07/02 12:26:30;;;;;;;7.30;5.60;;;;;;;;;;5085277;28;20028;-79
2021/07/02 12:29:04;;;;;;;8.02;5.32;;;;;;;;;;5072754;28;20687;-78
2021/07/02 12:31:30;;;;;;;6.18;4.93;;;;;;;;;;5072581;28;20400;-74
2021/07/02 12:33:56;;;;;;;6.15;4.72;;;;;;;;;;5070756;28;20032;-78
2021/07/02 12:36:22;;;;;;;5.80;4.40;;;;;;;;;;5054595;28;20143;-74
2021/07/02 12:39:05;;;;;;;9.88;4.80;;;;;;;;;;5072265;28;20507;-75
2021/07/02 12:41:40;;;;;;;6.15;5.05;;;;;;;;;;5072364;28;20146;-75
2021/07/02 12:44:06;;;;;;;8.18;4.57;;;;;;;;;;5072318;28;20096;-77
2021/07/02 12:46:33;;;;;;;7.82;4.38;;;;;;;;;;5072731;28;20032;-76
2021/07/02 12:49:24;;;;;;;7.32;4.93;;;;;;;;;;5072363;28;20450;-75
2021/07/02 12:57:39;;;;;;;5.47;4.60;;;;;;;;;;5072257;28;20115;-75
2021/07/02 13:00:23;;;;;;;9.63;4.20;;;;;;;;;;5072320;28;20111;-77
2021/07/02 13:02:56;;;;;;;4.90;4.40;;;;;;;;;;5072402;28;20115;-75
2021/07/02 13:05:24;;;;;;;6.35;4.50;;;;;;;;;;5071799;28;20633;-75
2021/07/02 13:07:57;;;;;;;7.10;4.93;;;;;;;;;;5060426;28;20033;-76
2021/07/02 13:10:44;;;;;;;7.20;4.57;;;;;;;;;;5052919;28;20079;-75
2021/07/02 13:13:24;;;;;;;6.65;4.47;;;;;;;;;;5072314;28;20028;-77
2021/07/02 13:15:52;;;;;;;5.70;4.38;;;;;;;;;;5053388;28;20434;-75
2021/07/02 13:18:23;;;;;;;5.68;4.28;;;;;;;;;;5048380;28;20060;-76
2021/07/02 13:20:54;;;;;;;7.00;4.43;;;;;;;;;;5066311;28;20021;-76
2021/07/02 13:23:21;;;;;;;6.80;4.28;;;;;;;;;;5071687;28;20028;-76
2021/07/02 13:26:03;;;;;;;6.65;4.00;;;;;;;;;;5053627;28;20035;-75
2021/07/02 13:28:40;;;;;;;5.38;4.28;;;;;;;;;;5071969;28;20047;-78
2021/07/02 13:31:29;;;;;;;7.40;4.38;;;;;;;;;;5067967;28;20025;-76
2021/07/02 13:34:12;;;;;;;10.20;4.22;;;;;;;;;;5052764;28;20032;-76
2021/07/02 13:36:42;;;;;;;4.20;3.63;;;;;;;;;;5054508;28;20035;-75
2021/07/02 13:39:15;;;;;;;7.10;4.80;;;;;;;;;;5058288;28;20028;-76
2021/07/02 13:41:42;;;;;;;6.75;4.25;;;;;;;;;;5055759;28;20055;-77
2021/07/02 13:44:11;;;;;;;7.35;4.57;;;;;;;;;;5072242;28;20033;-75
2021/07/02 13:46:37;;;;;;;7.28;4.53;;;;;;;;;;5072354;28;20031;-77
2021/07/02 13:49:08;;;;;;;7.50;4.40;;;;;;;;;;5069620;28;20052;-75
2021/07/02 13:51:35;;;;;;;5.50;4.65;;;;;;;;;;5055325;28;20364;-79
2021/07/02 13:54:06;;;;;;;5.45;4.75;;;;;;;;;;5065892;28;20089;-77
2021/07/02 13:56:32;;;;;;;8.38;4.70;;;;;;;;;;5065885;28;20027;-74
2021/07/02 13:58:59;;;;;;;5.50;4.25;;;;;;;;;;5056195;28;20025;-76
2021/07/02 14:01:24;;;;;;;5.72;3.95;;;;;;;;;;5055946;28;20036;-74
2021/07/02 14:03:50;;;;;;;6.68;4.32;;;;;;;;;;5062881;28;20020;-76
2021/07/02 14:06:15;;;;;;;6.90;4.10;;;;;;;;;;5071576;28;20117;-74
2021/07/02 14:08:45;;;;;;;8.68;3.70;;;;;;;;;;5072016;28;20021;-75
2021/07/02 14:11:12;;;;;;;7.95;3.90;;;;;;;;;;5062938;28;20473;-74
2021/07/02 14:13:38;;;;;;;6.22;3.65;;;;;;;;;;5066286;28;20032;-75
2021/07/02 14:16:04;;;;;;;6.65;3.55;;;;;;;;;;5069755;28;20051;-73
2021/07/02 14:18:31;;;;;;;8.77;3.30;;;;;;;;;;5072158;28;20036;-73
2021/07/02 14:20:56;;;;;;;4.72;3.13;;;;;;;;;;5075806;28;20483;-75
2021/07/02 14:23:22;;;;;;;5.53;3.00;;;;;;;;;;5076116;28;20106;-73
2021/07/02 14:25:48;;;;;;;6.90;3.30;;;;;;;;;;5057957;28;20078;-75
2021/07/02 14:28:13;;;;;;;3.50;3.10;;;;;;;;;;5078931;28;20489;-75
2021/07/02 14:30:39;;;;;;;6.82;2.95;;;;;;;;;;5094723;28;20024;-76
2021/07/02 14:33:04;;;;;;;5.53;2.70;;;;;;;;;;5092173;28;20418;-74
2021/07/02 14:35:30;;;;;;;4.57;2.67;;;;;;;;;;5084789;28;20095;-76
2021/07/02 14:37:56;;;;;;;6.30;2.83;;;;;;;;;;5077331;28;20421;-75
2021/07/02 14:40:21;;;;;;;7.47;2.70;;;;;;;;;;5075968;28;20020;-77
2021/07/02 14:42:48;;;;;;;4.65;2.65;;;;;;;;;;5084130;28;20016;-76
2021/07/02 14:45:14;;;;;;;3.63;2.30;;;;;;;;;;5083984;28;20472;-75
2021/07/02 14:47:40;;;;;;;5.63;2.80;;;;;;;;;;5090514;28;20038;-78
2021/07/02 14:50:06;;;;;;;6.13;2.78;;;;;;;;;;5079647;28;20024;-77
2021/07/02 14:52:32;;;;;;;6.28;2.80;;;;;;;;;;5076665;28;20039;-78
2021/07/02 14:54:58;;;;;;;3.75;2.75;;;;;;;;;;5075003;28;20044;-74
2021/07/02 14:57:25;;;;;;;4.40;2.67;;;;;;;;;;5075101;28;20065;-76
2021/07/02 14:59:50;;;;;;;4.85;2.55;;;;;;;;;;5076958;28;20464;-79
2021/07/02 15:02:27;;;;;;;3.42;2.30;;;;;;;;;;5090049;28;20062;-77